עמוד ראשי
METAR-TAF:

METAR-TAF

שדות תעופה :

Porto Santo, פורטוגל

קו רוחב: 33-04N, קו אורך: 016-21W, גובה: 97מטר

תצפית מזג אוויר נוכחית

הדו"ח נערך לפני 17דקות, בשעה 11:30 UTC
רוח 15קשר מכיוון צפון
טמפרטורת 22 צלסיוס
לחות 57%
לחץ 1024 hPa
ראות 10 קילומטר או יותר
מעט עננים בגובה 1500רגל

METAR: LPPS 191130Z 36015KT 9999 FEW015 22/13 Q1024

זמן: 12:47 (11:47 UTC)

תחזית

הדו"ח נערך לפני 47דקות, בשעה 11:00 UTC
תחזית בתוקף מ 19 ב 12 UTC עד 20 ב 18 UTC
רוח 15קשר מכיוון צפון
ראות 10 קילומטר או יותר
עננים פזורים בגובה 1500רגל
זמנית מ -
19 ב 12 UTC עד 20 ב 18 UTC
עננים פזורים בגובה 1500רגל
עננים בינוניים בגובה 3000רגל
יעשה מ
20 ב 01 UTC עד 20 ב 03 UTC
רוח 10קשר מכיוון צפון/צפון-מזרח

TAF: LPPS 191100Z 1912/2018 01015KT 9999 SCT015 TEMPO 1912/2018 SCT015 BKN030 BECMG 2001/2003 03010KT

תצפיות ותחזיות מזג אוויר לגבי יותר מ- 4,000 שדות תעופה ברחבי העולם. דוחות METAR ו- TAF.

התחנות הזמינות מסומנות בנקודות צהובות ואדומות על גבי המפה.

העבר את העכבר לנקודה הצבעונית על מנת לראות את שם התחנה.

לאחר מכן, לחץ כדי לראות את תוכן ואת תחזיות מזג האוויר.

כדי לשנות את המפה: לחץ על הכפתורים הירוקים עם הפלוס השחור כדי להתקרב; על הכפתור הירוק עם המקף כדי להתרחק; או בחיצים הירוקים למפות סמוכות.


METAR-TAF: